Impacts TAF Board
For situational awareness. Not to be used for flight planning purposes.
IDs:

KATL - Atlanta/Hartsfield I, GA, US

Issued at 1938 UTC 08 Feb 2023
Updated at 2020 UTC 08 Feb 2023
Potential Impact None Slight Moderate High
Time1952Z 08/21Z 08/22Z 08/23Z 09/00Z 09/01Z 09/02Z 09/03Z 09/04Z 09/05Z 09/06Z 09/07Z 09/08Z 09/09Z>>
Type OBS PRVL PRVL PRVL PRVL PRVL PRVL PRVL PRVL PRVL PRVL PRVL PRVL PRVL
VIS 10 >6 >6 >6 >6 >6 >6 >6 >6 >6 >6 >6 >6 >6
CIG 200 100 100 100 100 100 100 100 100 40 40 40 40 40
Cover BKN BKN BKN BKN BKN BKN BKN BKN BKN OVC OVC OVC OVC OVC
FltCat VFR VFR VFR VFR VFR VFR VFR VFR VFR VFR VFR VFR VFR VFR
WX -- -- -- -- -- -- -- -- -- -- -- -- -- --
WDir 150 170 170 170 170 170 170 170 170 140 140 140 140 140
WSpd 6 7 7 7 7 7 7 7 7 7 7 7 7 7
WGst -- -- -- -- -- -- -- -- -- -- -- -- -- --
WSHgt -- -- -- -- -- -- -- -- -- -- -- -- -- --
WSDir -- -- -- -- -- -- -- -- -- -- -- -- -- --
WSSpd -- -- -- -- -- -- -- -- -- -- -- -- -- --
R08/26
XWnd -5 -7 -7 -7 -7 -7 -7 -7 -7 -5 -5 -5 -5 -5
HWnd 3 1 1 1 1 1 1 1 1 4 4 4 4 4
R09/27
XWnd -5 -7 -7 -7 -7 -7 -7 -7 -7 -5 -5 -5 -5 -5
HWnd 3 1 1 1 1 1 1 1 1 4 4 4 4 4
R10/28
XWnd -5 -7 -7 -7 -7 -7 -7 -7 -7 -5 -5 -5 -5 -5
HWnd 3 1 1 1 1 1 1 1 1 4 4 4 4 4

NOTE: LAMP data beyond the time of the TAF data is denoted as LAMP in Type and colored magenta.

Raw TAF
KATL 081938Z 0820/0924 17007KT P6SM SCT040 BKN100
  FM090500 14007KT P6SM OVC040
  FM091400 17010G20KT P6SM -SHRA OVC025 WS003/19045KT
  FM091600 20012G24KT 6SM -SHRA BR OVC012
  PROB30 0916/0922 4SM SHRA BR OVC007


Raw METAR
KATL 081952Z 15006KT 10SM FEW039 SCT075 BKN200 BKN250 22/12 A3022 RMK AO2 SLP228 T02220117
KATL 081852Z 15006KT 10SM FEW038 SCT070 BKN200 BKN250 21/11 A3024 RMK AO2 SLP238 MDT CU SW W T02060111
KATL 081752Z 18008KT 10SM SCT033 BKN065 BKN120 BKN200 19/11 A3027 RMK AO2 SLP246 T01940111 10194 20128 58007

METAR Board
Radar Display
Forecast Discussion

For situational awareness. Not to be used for flight planning purposes.